createdAt,value
2022-10-17T00:00:07.364Z,100946.34
2022-10-17T00:02:38.504Z,100936.79
2022-10-17T00:05:11.956Z,100938.50
2022-10-17T00:07:43.883Z,100952.56
2022-10-17T00:10:15.734Z,100937.66
2022-10-17T00:12:47.673Z,100930.47
2022-10-17T00:15:22.165Z,100921.82
2022-10-17T00:17:54.117Z,100929.74
2022-10-17T00:20:26.232Z,100922.83
2022-10-17T00:22:59.637Z,100908.11
2022-10-17T00:25:31.564Z,100921.30
2022-10-17T00:28:03.960Z,100907.45
2022-10-17T00:30:35.907Z,100906.65
2022-10-17T00:33:08.089Z,100901.48
2022-10-17T00:35:40.177Z,100893.57
2022-10-17T00:38:12.237Z,100889.21
2022-10-17T00:40:44.298Z,100893.57
2022-10-17T00:43:19.056Z,100883.20
2022-10-17T00:45:51.667Z,100874.42
2022-10-17T00:48:25.524Z,100887.67
2022-10-17T00:50:57.637Z,100892.87
2022-10-17T00:53:30.205Z,100880.59
2022-10-17T00:56:02.616Z,100869.26
2022-10-17T00:58:34.708Z,100869.36
2022-10-17T01:01:06.609Z,100868.53
2022-10-17T01:03:38.521Z,100865.91
2022-10-17T01:06:10.512Z,100855.45
2022-10-17T01:08:42.654Z,100851.06
2022-10-17T01:11:29.420Z,100848.44
2022-10-17T01:14:07.544Z,100843.17
2022-10-17T01:16:52.402Z,100840.59
2022-10-17T01:19:48.315Z,100839.06
2022-10-17T01:22:50.295Z,100837.39
2022-10-17T01:25:53.479Z,100831.46
2022-10-17T01:28:46.632Z,100832.40
2022-10-17T01:31:27.651Z,100821.88
2022-10-17T01:34:02.475Z,100823.69
2022-10-17T01:36:40.943Z,100828.15
2022-10-17T01:39:21.635Z,100811.55
2022-10-17T01:42:15.883Z,100816.68
2022-10-17T01:44:56.306Z,100811.42
2022-10-17T01:47:31.750Z,100805.20
2022-10-17T01:50:17.290Z,100803.47
2022-10-17T01:52:55.235Z,100812.25
2022-10-17T01:55:35.798Z,100796.73
2022-10-17T01:58:10.786Z,100802.95
2022-10-17T02:00:46.130Z,100797.78
2022-10-17T02:03:21.027Z,100797.02
2022-10-17T02:05:53.163Z,100786.59
2022-10-17T02:08:30.423Z,100795.34
2022-10-17T02:11:08.264Z,100796.22
2022-10-17T02:13:53.084Z,100795.45
2022-10-17T02:16:47.382Z,100798.86
2022-10-17T02:19:33.580Z,100799.73
2022-10-17T02:22:09.281Z,100796.91
2022-10-17T02:24:48.210Z,100788.30
2022-10-17T02:27:29.375Z,100782.20
2022-10-17T02:30:13.284Z,100786.70
2022-10-17T02:32:50.688Z,100785.00
2022-10-17T02:35:27.073Z,100783.36
2022-10-17T02:38:01.326Z,100793.95
2022-10-17T02:40:33.080Z,100782.66
2022-10-17T02:43:05.364Z,100786.73
2022-10-17T02:45:39.841Z,100780.88
2022-10-17T02:48:12.533Z,100781.95
2022-10-17T02:51:05.489Z,100782.27
2022-10-17T02:54:00.744Z,100776.59
2022-10-17T02:56:36.243Z,100769.55
2022-10-17T02:59:10.554Z,100754.88
2022-10-17T03:01:43.207Z,100754.98
2022-10-17T03:04:16.082Z,100752.47
2022-10-17T03:06:49.822Z,100758.60
2022-10-17T03:09:22.652Z,100752.58
2022-10-17T03:11:54.916Z,100751.67
2022-10-17T03:14:26.877Z,100748.13
2022-10-17T03:16:58.838Z,100743.66
2022-10-17T03:19:31.196Z,100747.95
2022-10-17T03:22:03.345Z,100741.78
2022-10-17T03:24:37.077Z,100724.33
2022-10-17T03:27:09.256Z,100723.45
2022-10-17T03:29:41.509Z,100716.38
2022-10-17T03:32:14.074Z,100706.84
2022-10-17T03:34:46.358Z,100703.14
2022-10-17T03:37:18.593Z,100700.41
2022-10-17T03:39:50.736Z,100699.39
2022-10-17T03:42:22.852Z,100699.22
2022-10-17T03:44:55.201Z,100699.97
2022-10-17T03:47:28.039Z,100693.76
2022-10-17T03:50:00.384Z,100692.81
2022-10-17T03:52:34.017Z,100692.85
2022-10-17T03:55:07.246Z,100692.78
2022-10-17T03:57:41.158Z,100696.38
2022-10-17T04:00:13.504Z,100694.56
2022-10-17T04:02:50.134Z,100686.75
2022-10-17T04:05:23.195Z,100675.38
2022-10-17T04:07:55.369Z,100669.32
2022-10-17T04:10:30.034Z,100678.08
2022-10-17T04:13:02.674Z,100675.45
2022-10-17T04:15:35.086Z,100674.63
2022-10-17T04:18:07.709Z,100681.56
2022-10-17T04:20:39.810Z,100667.73
2022-10-17T04:23:11.978Z,100663.45
2022-10-17T04:25:44.063Z,100663.45
2022-10-17T04:28:17.134Z,100654.70
2022-10-17T04:30:52.137Z,100655.53
2022-10-17T04:33:23.240Z,100652.77
2022-10-17T04:36:00.543Z,100647.45
2022-10-17T04:38:33.018Z,100649.99
2022-10-17T04:41:07.758Z,100635.02
2022-10-17T04:43:40.993Z,100641.00
2022-10-17T04:46:15.671Z,100636.48
2022-10-17T04:48:49.241Z,100635.49
2022-10-17T04:51:24.490Z,100641.52
2022-10-17T04:53:57.291Z,100638.73
2022-10-17T04:56:29.359Z,100641.27
2022-10-17T04:59:02.506Z,100641.73
2022-10-17T05:01:35.562Z,100640.14
2022-10-17T05:04:07.624Z,100640.02
2022-10-17T05:06:40.136Z,100625.03
2022-10-17T05:09:14.350Z,100620.80
2022-10-17T05:11:47.349Z,100629.39
2022-10-17T05:14:19.830Z,100632.09
2022-10-17T05:16:52.751Z,100621.75
2022-10-17T05:19:24.897Z,100622.66
2022-10-17T05:21:56.838Z,100615.69
2022-10-17T05:24:29.296Z,100615.64
2022-10-17T05:27:02.317Z,100610.29
2022-10-17T05:29:37.138Z,100600.60
2022-10-17T05:32:15.324Z,100608.16
2022-10-17T05:34:49.519Z,100604.54
2022-10-17T05:37:24.009Z,100614.09
2022-10-17T05:39:57.393Z,100599.09
2022-10-17T05:42:30.850Z,100600.61
2022-10-17T05:45:03.742Z,100600.44
2022-10-17T05:47:36.720Z,100587.03
2022-10-17T05:50:09.739Z,100586.67
2022-10-17T05:52:46.432Z,100585.28
2022-10-17T05:55:19.288Z,100567.54
2022-10-17T05:57:52.943Z,100566.30
2022-10-17T06:00:26.020Z,100573.77
2022-10-17T06:02:59.907Z,100575.22
2022-10-17T06:05:32.551Z,100565.37
2022-10-17T06:08:06.109Z,100580.86
2022-10-17T06:10:41.721Z,100573.08
2022-10-17T06:13:18.456Z,100570.38
2022-10-17T06:15:52.982Z,100571.19
2022-10-17T06:18:27.315Z,100574.73
2022-10-17T06:21:07.352Z,100566.00
2022-10-17T06:23:40.269Z,100559.15
2022-10-17T06:26:23.386Z,100566.15
2022-10-17T06:28:57.128Z,100573.96
2022-10-17T06:31:30.919Z,100552.73
2022-10-17T06:34:02.964Z,100572.73
2022-10-17T06:36:35.069Z,100566.67
2022-10-17T06:39:08.323Z,100570.11
2022-10-17T06:41:44.914Z,100571.92
2022-10-17T06:44:18.577Z,100559.57
2022-10-17T06:46:59.043Z,100545.54
2022-10-17T06:49:31.269Z,100535.89
2022-10-17T06:52:05.018Z,100523.34
2022-10-17T06:54:45.754Z,100512.69
2022-10-17T06:57:35.745Z,100521.25
2022-10-17T07:00:14.007Z,100533.05
2022-10-17T07:02:47.875Z,100528.30
2022-10-17T07:05:20.339Z,100527.80
2022-10-17T07:07:52.681Z,100529.01
2022-10-17T07:10:24.753Z,100527.52
2022-10-17T07:12:56.870Z,100533.66
2022-10-17T07:15:29.185Z,100535.61
2022-10-17T07:18:01.385Z,100527.25
2022-10-17T07:20:33.978Z,100515.91
2022-10-17T07:23:06.161Z,100517.61
2022-10-17T07:25:40.211Z,100523.39
2022-10-17T07:28:14.962Z,100528.98
2022-10-17T07:30:50.695Z,100525.84
2022-10-17T07:33:20.936Z,100517.31
2022-10-17T07:35:53.362Z,100524.75
2022-10-17T07:38:25.304Z,100495.19
2022-10-17T07:40:58.820Z,100508.30
2022-10-17T07:43:31.403Z,100504.95
2022-10-17T07:46:06.093Z,100506.55
2022-10-17T07:48:39.547Z,100510.76
2022-10-17T07:51:12.565Z,100510.73
2022-10-17T07:53:48.683Z,100511.66
2022-10-17T07:56:18.473Z,100505.51
2022-10-17T07:58:50.310Z,100511.23
2022-10-17T08:01:22.419Z,100510.15
2022-10-17T08:03:54.523Z,100510.63
2022-10-17T08:06:26.574Z,100497.31
2022-10-17T08:08:59.746Z,100510.48
2022-10-17T08:11:32.327Z,100522.27
2022-10-17T08:14:04.470Z,100516.11
2022-10-17T08:16:36.591Z,100497.34
2022-10-17T08:21:41.450Z,100501.84
2022-10-17T08:24:13.855Z,100514.07
2022-10-17T08:26:48.273Z,100512.19
2022-10-17T08:29:20.398Z,100512.04
2022-10-17T08:31:56.279Z,100497.00
2022-10-17T08:34:26.624Z,100502.73
2022-10-17T08:36:58.773Z,100502.95
2022-10-17T08:39:31.148Z,100500.70
2022-10-17T08:42:06.000Z,100497.67
2022-10-17T08:44:52.950Z,100485.45
2022-10-17T08:47:39.342Z,100476.39
2022-10-17T08:50:32.251Z,100471.81
2022-10-17T08:53:18.876Z,100474.38
2022-10-17T08:55:53.236Z,100479.57
2022-10-17T08:58:28.546Z,100486.52
2022-10-17T09:01:18.368Z,100492.68
2022-10-17T09:04:17.848Z,100493.66
2022-10-17T09:06:52.846Z,100500.97
2022-10-17T09:09:30.613Z,100501.48
2022-10-17T09:12:05.829Z,100479.16
2022-10-17T09:14:56.540Z,100475.97
2022-10-17T09:17:37.732Z,100476.08
2022-10-17T09:20:21.506Z,100467.80
2022-10-17T09:23:02.643Z,100481.68
2022-10-17T09:25:37.789Z,100478.91
2022-10-17T09:28:31.020Z,100490.77
2022-10-17T09:31:06.268Z,100495.58
2022-10-17T09:33:56.387Z,100507.36
2022-10-17T09:36:27.354Z,100498.95
2022-10-17T09:39:02.912Z,100497.40
2022-10-17T09:41:46.087Z,100475.50
2022-10-17T09:44:25.450Z,100464.77
2022-10-17T09:47:12.321Z,100464.63
2022-10-17T09:49:47.036Z,100483.03
2022-10-17T09:52:25.182Z,100473.44
2022-10-17T09:55:03.580Z,100484.09
2022-10-17T09:57:57.758Z,100471.18
2022-10-17T10:00:35.587Z,100467.05
2022-10-17T10:03:16.267Z,100459.25
2022-10-17T10:06:08.916Z,100452.41
2022-10-17T10:09:02.468Z,100452.54
2022-10-17T10:11:54.169Z,100453.23
2022-10-17T10:14:39.710Z,100437.22
2022-10-17T10:17:44.425Z,100436.81
2022-10-17T10:20:34.558Z,100430.09
2022-10-17T10:23:21.835Z,100425.86
2022-10-17T10:26:02.595Z,100420.52
2022-10-17T10:28:38.790Z,100414.16
2022-10-17T10:31:11.361Z,100410.23
2022-10-17T10:33:48.155Z,100396.69
2022-10-17T10:36:20.063Z,100394.73
2022-10-17T10:38:54.895Z,100391.81
2022-10-17T10:41:27.938Z,100391.41
2022-10-17T10:43:59.989Z,100402.59
2022-10-17T10:46:32.068Z,100401.50
2022-10-17T10:49:04.354Z,100403.20
2022-10-17T10:51:42.639Z,100405.68
2022-10-17T10:54:23.708Z,100390.88
2022-10-17T10:56:58.292Z,100384.66
2022-10-17T10:59:48.386Z,100374.98
2022-10-17T11:02:41.810Z,100369.74
2022-10-17T11:05:16.916Z,100373.84
2022-10-17T11:07:53.038Z,100382.31
2022-10-17T11:10:37.042Z,100374.50
2022-10-17T11:13:15.262Z,100370.69
2022-10-17T11:15:50.136Z,100361.73
2022-10-17T11:18:25.336Z,100366.14
2022-10-17T11:21:28.257Z,100373.80
2022-10-17T11:24:06.851Z,100373.95
2022-10-17T11:26:40.355Z,100366.69
2022-10-17T11:29:14.197Z,100372.22
2022-10-17T11:31:52.227Z,100368.88
2022-10-17T11:34:30.349Z,100380.14
2022-10-17T11:37:05.785Z,100371.50
2022-10-17T11:39:48.425Z,100361.02
2022-10-17T11:42:29.370Z,100352.23
2022-10-17T11:45:04.869Z,100354.62
2022-10-17T11:47:48.965Z,100351.84
2022-10-17T11:53:27.461Z,100329.81
2022-10-17T11:56:02.289Z,100330.62
2022-10-17T11:58:42.982Z,100330.69
2022-10-17T12:01:42.050Z,100319.42
2022-10-17T12:04:46.282Z,100310.63
2022-10-17T12:07:37.079Z,100317.63
2022-10-17T12:10:26.847Z,100325.50
2022-10-17T12:12:59.259Z,100318.80
2022-10-17T12:15:32.640Z,100322.28
2022-10-17T12:18:05.416Z,100315.40
2022-10-17T12:20:39.470Z,100308.45
2022-10-17T12:23:17.304Z,100305.03
2022-10-17T12:25:57.008Z,100309.50
2022-10-17T12:28:40.955Z,100305.69
2022-10-17T12:31:20.638Z,100295.41
2022-10-17T12:33:55.454Z,100299.66
2022-10-17T12:36:31.026Z,100304.79
2022-10-17T12:39:07.784Z,100340.75
2022-10-17T12:41:46.756Z,100332.95
2022-10-17T12:44:25.271Z,100327.70
2022-10-17T12:47:09.911Z,100340.04
2022-10-17T12:49:56.495Z,100331.37
2022-10-17T12:52:38.627Z,100333.93
2022-10-17T12:55:17.231Z,100347.84
2022-10-17T12:58:04.126Z,100351.45
2022-10-17T13:01:11.668Z,100370.64
2022-10-17T13:03:36.857Z,100373.20
2022-10-17T13:06:10.742Z,100375.83
2022-10-17T13:08:53.528Z,100386.37
2022-10-17T13:11:27.700Z,100392.31
2022-10-17T13:14:02.144Z,100399.31
2022-10-17T13:16:39.730Z,100406.25
2022-10-17T13:19:20.276Z,100409.80
2022-10-17T13:21:57.972Z,100412.53
2022-10-17T13:24:36.668Z,100404.72
2022-10-17T13:27:28.018Z,100415.21
2022-10-17T13:30:02.668Z,100410.89
2022-10-17T13:32:40.853Z,100398.59
2022-10-17T13:35:17.128Z,100408.22
2022-10-17T13:37:53.857Z,100400.23
2022-10-17T13:40:49.485Z,100394.93
2022-10-17T13:43:02.485Z,100388.82
2022-10-17T13:45:37.189Z,100382.86
2022-10-17T13:48:12.307Z,100368.82
2022-10-17T13:50:45.158Z,100371.45
2022-10-17T13:53:32.230Z,100356.64
2022-10-17T13:56:27.426Z,100347.84
2022-10-17T13:58:46.871Z,100342.55
2022-10-17T14:01:20.389Z,100338.82
2022-10-17T14:04:07.146Z,100339.66
2022-10-17T14:06:29.765Z,100329.05
2022-10-17T14:09:02.901Z,100330.95
2022-10-17T14:11:43.650Z,100324.98
2022-10-17T14:14:24.316Z,100323.92
2022-10-17T14:16:57.016Z,100322.40
2022-10-17T14:19:35.077Z,100333.21
2022-10-17T14:22:19.440Z,100318.46
2022-10-17T14:24:53.418Z,100327.37
2022-10-17T14:27:29.065Z,100329.98
2022-10-17T14:30:04.053Z,100339.93
2022-10-17T14:32:38.639Z,100327.91
2022-10-17T14:35:30.490Z,100328.95
2022-10-17T14:37:47.763Z,100339.81
2022-10-17T14:40:25.420Z,100334.45
2022-10-17T14:43:01.287Z,100342.11
2022-10-17T14:45:36.265Z,100356.75
2022-10-17T14:48:14.516Z,100337.36
2022-10-17T14:51:15.487Z,100337.25
2022-10-17T14:54:08.873Z,100330.05
2022-10-17T14:56:46.094Z,100323.05
2022-10-17T14:59:35.459Z,100321.41
2022-10-17T15:01:53.423Z,100336.27
2022-10-17T15:04:25.540Z,100326.88
2022-10-17T15:09:30.003Z,100343.75
2022-10-17T15:12:04.107Z,100353.83
2022-10-17T15:14:36.467Z,100354.72
2022-10-17T15:17:12.945Z,100360.77
2022-10-17T15:19:48.173Z,100374.74
2022-10-17T15:22:24.656Z,100373.77
2022-10-17T15:24:59.445Z,100361.27
2022-10-17T15:27:35.537Z,100364.92
2022-10-17T15:30:28.127Z,100357.78
2022-10-17T15:33:01.119Z,100363.14
2022-10-17T15:35:33.676Z,100366.52
2022-10-17T15:38:08.385Z,100368.81
2022-10-17T15:40:44.733Z,100382.48
2022-10-17T15:43:19.939Z,100372.59
2022-10-17T15:45:53.066Z,100385.59
2022-10-17T15:48:32.749Z,100389.69
2022-10-17T15:51:06.911Z,100388.33
2022-10-17T15:53:41.001Z,100393.31
2022-10-17T15:56:29.297Z,100389.41
2022-10-17T15:59:04.132Z,100383.92
2022-10-17T16:01:37.363Z,100380.14
2022-10-17T16:04:16.016Z,100387.89
2022-10-17T16:06:49.512Z,100372.80
2022-10-17T16:09:22.026Z,100369.13
2022-10-17T16:11:54.303Z,100360.20
2022-10-17T16:14:26.315Z,100366.16
2022-10-17T16:16:59.178Z,100367.80
2022-10-17T16:19:32.130Z,100378.36
2022-10-17T16:22:05.927Z,100364.40
2022-10-17T16:24:38.204Z,100365.05
2022-10-17T16:27:11.587Z,100366.50
2022-10-17T16:29:43.917Z,100375.14
2022-10-17T16:32:16.041Z,100376.02
2022-10-17T16:34:48.129Z,100379.34
2022-10-17T16:37:20.723Z,100389.02
2022-10-17T16:39:53.742Z,100383.54
2022-10-17T16:42:26.283Z,100391.30
2022-10-17T16:44:58.854Z,100381.44
2022-10-17T16:47:32.620Z,100383.13
2022-10-17T16:50:05.071Z,100391.88
2022-10-17T16:52:37.359Z,100390.95
2022-10-17T16:55:17.538Z,100396.14
2022-10-17T16:57:49.978Z,100388.26
2022-10-17T17:00:22.324Z,100396.08
2022-10-17T17:02:54.292Z,100394.22
2022-10-17T17:05:26.587Z,100389.95
2022-10-17T17:07:59.600Z,100395.08
2022-10-17T17:10:32.219Z,100405.47
2022-10-17T17:13:08.061Z,100405.47
2022-10-17T17:15:40.387Z,100409.02
2022-10-17T17:18:14.426Z,100409.02
2022-10-17T17:20:46.586Z,100406.39
2022-10-17T17:23:18.678Z,100389.70
2022-10-17T17:25:50.867Z,100402.71
2022-10-17T17:28:22.928Z,100393.16
2022-10-17T17:30:57.279Z,100384.33
2022-10-17T17:33:34.615Z,100385.16
2022-10-17T17:36:06.609Z,100391.98
2022-10-17T17:38:41.346Z,100398.38
2022-10-17T17:41:16.638Z,100389.41
2022-10-17T17:43:49.696Z,100384.45
2022-10-17T17:46:22.615Z,100400.98
2022-10-17T17:48:56.584Z,100396.66
2022-10-17T17:51:30.121Z,100392.20
2022-10-17T17:54:02.258Z,100403.61
2022-10-17T17:56:35.813Z,100399.22
2022-10-17T17:59:08.428Z,100393.16
2022-10-17T18:01:41.328Z,100392.27
2022-10-17T18:04:14.630Z,100394.03
2022-10-17T18:06:52.740Z,100390.34
2022-10-17T18:09:25.906Z,100400.66
2022-10-17T18:12:13.799Z,100393.48
2022-10-17T18:14:59.208Z,100402.07
2022-10-17T18:17:34.505Z,100400.24
2022-10-17T18:20:08.572Z,100413.16
2022-10-17T18:22:42.985Z,100405.27
2022-10-17T18:25:19.093Z,100411.33
2022-10-17T18:27:51.891Z,100409.41
2022-10-17T18:30:27.139Z,100415.72
2022-10-17T18:32:58.773Z,100410.40
2022-10-17T18:35:32.789Z,100410.91
2022-10-17T18:38:05.218Z,100422.61
2022-10-17T18:40:37.807Z,100418.16
2022-10-17T18:43:14.993Z,100427.86
2022-10-17T18:45:47.641Z,100422.55
2022-10-17T18:48:21.117Z,100420.91
2022-10-17T18:50:53.540Z,100430.59
2022-10-17T18:53:25.834Z,100429.66
2022-10-17T18:55:58.272Z,100423.66
2022-10-17T18:58:31.313Z,100426.23
2022-10-17T19:01:06.074Z,100420.27
2022-10-17T19:03:39.601Z,100438.59
2022-10-17T19:06:13.353Z,100437.80
2022-10-17T19:08:46.230Z,100423.02
2022-10-17T19:11:22.601Z,100425.52
2022-10-17T19:19:22.824Z,100427.52
2022-10-17T19:21:56.460Z,100421.00
2022-10-17T19:24:31.152Z,100419.30
2022-10-17T19:27:05.409Z,100420.30
2022-10-17T19:29:37.924Z,100427.47
2022-10-17T19:32:15.634Z,100422.34
2022-10-17T19:34:44.609Z,100419.84
2022-10-17T19:37:20.853Z,100428.58
2022-10-17T19:39:52.961Z,100424.50
2022-10-17T19:42:27.390Z,100427.13
2022-10-17T19:44:59.997Z,100428.13
2022-10-17T19:47:35.700Z,100432.78
2022-10-17T19:50:09.644Z,100432.07
2022-10-17T19:52:42.884Z,100427.00
2022-10-17T19:55:15.176Z,100422.68
2022-10-17T19:57:47.721Z,100429.69
2022-10-17T20:00:19.908Z,100434.23
2022-10-17T20:02:53.707Z,100428.32
2022-10-17T20:05:28.356Z,100432.83
2022-10-17T20:08:00.620Z,100432.00
2022-10-17T20:10:34.347Z,100433.81
2022-10-17T20:13:06.999Z,100441.89
2022-10-17T20:15:40.978Z,100434.08
2022-10-17T20:18:13.094Z,100418.92
2022-10-17T20:20:47.431Z,100433.72
2022-10-17T20:23:22.146Z,100432.10
2022-10-17T20:26:13.224Z,100437.78
2022-10-17T20:28:35.291Z,100437.91
2022-10-17T20:31:10.057Z,100444.39
2022-10-17T20:33:43.328Z,100447.13
2022-10-17T20:36:16.757Z,100461.16
2022-10-17T20:38:50.688Z,100445.42
2022-10-17T20:41:23.620Z,100449.86
2022-10-17T20:43:57.508Z,100457.72
2022-10-17T20:46:36.863Z,100449.86
2022-10-17T20:49:03.978Z,100461.10
2022-10-17T20:51:47.234Z,100460.34
2022-10-17T20:54:20.073Z,100466.52
2022-10-17T20:56:52.288Z,100460.66
2022-10-17T20:59:26.050Z,100459.79
2022-10-17T21:01:58.302Z,100452.84
2022-10-17T21:04:46.032Z,100451.14
2022-10-17T21:07:08.359Z,100455.77
2022-10-17T21:09:41.041Z,100452.28
2022-10-17T21:12:18.175Z,100450.75
2022-10-17T21:14:49.878Z,100456.80
2022-10-17T21:17:22.832Z,100452.70
2022-10-17T21:19:57.589Z,100449.36
2022-10-17T21:22:33.243Z,100445.14
2022-10-17T21:25:06.785Z,100435.69
2022-10-17T21:27:39.085Z,100445.25
2022-10-17T21:30:12.010Z,100442.93
2022-10-17T21:32:52.693Z,100441.14
2022-10-17T21:35:19.335Z,100428.09
2022-10-17T21:37:53.540Z,100430.80
2022-10-17T21:40:31.109Z,100434.30
2022-10-17T21:43:03.413Z,100431.73
2022-10-17T21:45:37.706Z,100426.50
2022-10-17T21:48:13.342Z,100432.55
2022-10-17T21:50:43.039Z,100438.00
2022-10-17T21:53:16.060Z,100440.98
2022-10-17T21:55:49.149Z,100431.22
2022-10-17T21:58:22.663Z,100434.70
2022-10-17T22:00:55.655Z,100428.66
2022-10-17T22:03:28.169Z,100419.20
2022-10-17T22:06:12.741Z,100430.61
2022-10-17T22:08:37.132Z,100427.20
2022-10-17T22:11:12.163Z,100418.53
2022-10-17T22:13:45.467Z,100409.69
2022-10-17T22:16:18.533Z,100409.89
2022-10-17T22:18:51.050Z,100412.31
2022-10-17T22:21:24.528Z,100417.50
2022-10-17T22:23:59.201Z,100411.28
2022-10-17T22:26:33.747Z,100401.72
2022-10-17T22:29:08.183Z,100413.75
2022-10-17T22:31:40.929Z,100411.02
2022-10-17T22:34:16.089Z,100411.98
2022-10-17T22:36:49.377Z,100417.95
2022-10-17T22:39:21.850Z,100410.03
2022-10-17T22:41:54.543Z,100408.03
2022-10-17T22:44:27.293Z,100407.36
2022-10-17T22:46:59.993Z,100408.25
2022-10-17T22:49:34.017Z,100414.25
2022-10-17T22:52:06.256Z,100408.14
2022-10-17T22:54:38.428Z,100400.05
2022-10-17T22:57:11.329Z,100408.59
2022-10-17T22:59:43.415Z,100397.12
2022-10-17T23:02:16.079Z,100389.69
2022-10-17T23:04:48.293Z,100397.61
2022-10-17T23:07:20.374Z,100398.10
2022-10-17T23:09:52.573Z,100383.91
2022-10-17T23:12:26.295Z,100389.25
2022-10-17T23:14:58.816Z,100402.27
2022-10-17T23:17:32.864Z,100382.16
2022-10-17T23:20:05.887Z,100382.09
2022-10-17T23:22:38.320Z,100392.70
2022-10-17T23:25:10.862Z,100381.30
2022-10-17T23:27:48.193Z,100384.55
2022-10-17T23:30:20.797Z,100390.63
2022-10-17T23:32:54.345Z,100386.25
2022-10-17T23:35:27.918Z,100384.45
2022-10-17T23:38:00.585Z,100377.62
2022-10-17T23:40:32.940Z,100387.23
2022-10-17T23:43:05.853Z,100381.98
2022-10-17T23:48:10.808Z,100397.03
2022-10-17T23:50:43.065Z,100395.70
2022-10-17T23:53:15.175Z,100381.73
2022-10-17T23:55:47.389Z,100379.37
2022-10-17T23:58:20.572Z,100377.73
